Macaé, Plataforma P-25 Airport (SBLB)

NamePlataforma P-25 Airport
CityMacaé
CountryBrazil
ICAOSBLB
IATA
Altitude0 m
CoordinatesGoogle Map
Live Air TrafficLiveATC.net
METARSBLB 121800Z 07014KT 9999 SCT018 29/22 Q1013 W///S3
2018-01-12 18:00:00 Wind: East-Northeast (70°) 7.2 m/s - Visibility: > 10000 m - Temperature: 29 °C - Dew point: 22 °C - Humidity: 66% - Pressure: 1013 hPa

Sorry, no flights used the airport in this database.